sensor_id;sensor_type;location;lat;lon;timestamp;P1;durP1;ratioP1;P2;durP2;ratioP2
3050;SDS011;1535;51.098;6.414;2023-07-29T00:00:44;10.50;;;10.10;;
3050;SDS011;1535;51.098;6.414;2023-07-29T00:03:11;11.47;;;11.07;;
3050;SDS011;1535;51.098;6.414;2023-07-29T00:05:38;10.70;;;10.30;;
3050;SDS011;1535;51.098;6.414;2023-07-29T00:08:05;10.53;;;10.13;;
3050;SDS011;1535;51.098;6.414;2023-07-29T00:10:35;10.50;;;10.10;;
3050;SDS011;1535;51.098;6.414;2023-07-29T00:13:02;10.60;;;10.20;;
3050;SDS011;1535;51.098;6.414;2023-07-29T00:15:29;10.50;;;10.10;;
3050;SDS011;1535;51.098;6.414;2023-07-29T00:17:57;11.10;;;10.70;;
3050;SDS011;1535;51.098;6.414;2023-07-29T00:20:24;10.30;;;10.00;;
3050;SDS011;1535;51.098;6.414;2023-07-29T00:22:51;10.50;;;10.10;;
3050;SDS011;1535;51.098;6.414;2023-07-29T00:25:19;10.00;;;9.70;;
3050;SDS011;1535;51.098;6.414;2023-07-29T00:27:48;10.70;;;10.30;;
3050;SDS011;1535;51.098;6.414;2023-07-29T00:30:15;10.67;;;10.27;;
3050;SDS011;1535;51.098;6.414;2023-07-29T00:32:41;10.70;;;10.30;;
3050;SDS011;1535;51.098;6.414;2023-07-29T00:35:08;10.90;;;10.50;;
3050;SDS011;1535;51.098;6.414;2023-07-29T00:37:37;11.40;;;11.00;;
3050;SDS011;1535;51.098;6.414;2023-07-29T00:40:06;11.20;;;10.80;;
3050;SDS011;1535;51.098;6.414;2023-07-29T00:42:42;10.90;;;10.50;;
3050;SDS011;1535;51.098;6.414;2023-07-29T00:45:10;10.90;;;10.50;;
3050;SDS011;1535;51.098;6.414;2023-07-29T00:47:38;10.90;;;10.50;;
3050;SDS011;1535;51.098;6.414;2023-07-29T00:50:06;11.03;;;10.63;;
3050;SDS011;1535;51.098;6.414;2023-07-29T00:52:34;10.70;;;10.30;;
3050;SDS011;1535;51.098;6.414;2023-07-29T00:55:01;11.20;;;10.80;;
3050;SDS011;1535;51.098;6.414;2023-07-29T00:57:28;11.53;;;11.13;;
3050;SDS011;1535;51.098;6.414;2023-07-29T00:59:57;11.37;;;10.97;;
3050;SDS011;1535;51.098;6.414;2023-07-29T01:02:25;11.20;;;10.80;;
3050;SDS011;1535;51.098;6.414;2023-07-29T01:04:54;10.80;;;10.40;;
3050;SDS011;1535;51.098;6.414;2023-07-29T01:07:23;10.90;;;10.50;;
3050;SDS011;1535;51.098;6.414;2023-07-29T01:09:58;10.70;;;10.30;;
3050;SDS011;1535;51.098;6.414;2023-07-29T01:12:30;11.03;;;10.63;;
3050;SDS011;1535;51.098;6.414;2023-07-29T01:15:09;11.00;;;10.60;;
3050;SDS011;1535;51.098;6.414;2023-07-29T01:17:42;10.70;;;10.30;;
3050;SDS011;1535;51.098;6.414;2023-07-29T01:20:14;12.03;;;11.50;;
3050;SDS011;1535;51.098;6.414;2023-07-29T01:22:42;10.20;;;9.90;;
3050;SDS011;1535;51.098;6.414;2023-07-29T01:25:11;10.00;;;9.70;;
3050;SDS011;1535;51.098;6.414;2023-07-29T01:27:38;9.30;;;9.00;;
3050;SDS011;1535;51.098;6.414;2023-07-29T01:30:05;9.10;;;8.80;;
3050;SDS011;1535;51.098;6.414;2023-07-29T01:32:36;9.70;;;9.40;;
3050;SDS011;1535;51.098;6.414;2023-07-29T01:35:10;10.10;;;9.80;;
3050;SDS011;1535;51.098;6.414;2023-07-29T01:37:42;12.67;;;12.17;;
3050;SDS011;1535;51.098;6.414;2023-07-29T01:40:15;12.40;;;11.90;;
3050;SDS011;1535;51.098;6.414;2023-07-29T01:42:43;11.60;;;11.20;;
3050;SDS011;1535;51.098;6.414;2023-07-29T01:45:11;11.73;;;11.33;;
3050;SDS011;1535;51.098;6.414;2023-07-29T01:47:38;12.03;;;11.63;;
3050;SDS011;1535;51.098;6.414;2023-07-29T01:50:07;11.93;;;11.53;;
3050;SDS011;1535;51.098;6.414;2023-07-29T01:52:34;11.43;;;11.03;;
3050;SDS011;1535;51.098;6.414;2023-07-29T01:55:01;10.87;;;10.47;;
3050;SDS011;1535;51.098;6.414;2023-07-29T01:57:31;10.90;;;10.50;;
3050;SDS011;1535;51.098;6.414;2023-07-29T01:59:58;10.73;;;10.33;;
3050;SDS011;1535;51.098;6.414;2023-07-29T02:02:25;9.70;;;9.40;;
3050;SDS011;1535;51.098;6.414;2023-07-29T02:04:51;9.50;;;9.20;;
3050;SDS011;1535;51.098;6.414;2023-07-29T02:07:20;9.70;;;9.40;;
3050;SDS011;1535;51.098;6.414;2023-07-29T02:09:48;9.80;;;9.50;;
3050;SDS011;1535;51.098;6.414;2023-07-29T02:12:15;9.40;;;9.10;;
3050;SDS011;1535;51.098;6.414;2023-07-29T02:14:43;9.30;;;9.00;;
3050;SDS011;1535;51.098;6.414;2023-07-29T02:17:10;9.00;;;8.70;;
3050;SDS011;1535;51.098;6.414;2023-07-29T02:19:37;9.40;;;9.10;;
3050;SDS011;1535;51.098;6.414;2023-07-29T02:22:04;9.27;;;8.97;;
3050;SDS011;1535;51.098;6.414;2023-07-29T02:24:31;9.30;;;9.00;;
3050;SDS011;1535;51.098;6.414;2023-07-29T02:26:58;8.60;;;8.30;;
3050;SDS011;1535;51.098;6.414;2023-07-29T02:29:25;8.27;;;8.00;;
3050;SDS011;1535;51.098;6.414;2023-07-29T02:31:54;7.70;;;7.50;;
3050;SDS011;1535;51.098;6.414;2023-07-29T02:34:20;7.50;;;7.30;;
3050;SDS011;1535;51.098;6.414;2023-07-29T02:36:48;7.73;;;7.53;;
3050;SDS011;1535;51.098;6.414;2023-07-29T02:39:15;8.00;;;7.80;;
3050;SDS011;1535;51.098;6.414;2023-07-29T02:41:43;7.97;;;7.77;;
3050;SDS011;1535;51.098;6.414;2023-07-29T02:44:10;8.37;;;8.07;;
3050;SDS011;1535;51.098;6.414;2023-07-29T02:46:37;7.40;;;7.20;;
3050;SDS011;1535;51.098;6.414;2023-07-29T02:49:05;7.20;;;7.00;;
3050;SDS011;1535;51.098;6.414;2023-07-29T02:51:32;8.40;;;8.10;;
3050;SDS011;1535;51.098;6.414;2023-07-29T02:53:59;8.77;;;8.47;;
3050;SDS011;1535;51.098;6.414;2023-07-29T02:56:27;10.43;;;10.03;;
3050;SDS011;1535;51.098;6.414;2023-07-29T02:58:55;9.37;;;9.07;;
3050;SDS011;1535;51.098;6.414;2023-07-29T03:01:22;9.20;;;8.90;;
3050;SDS011;1535;51.098;6.414;2023-07-29T03:03:50;9.57;;;9.27;;
3050;SDS011;1535;51.098;6.414;2023-07-29T03:06:18;9.50;;;9.20;;
3050;SDS011;1535;51.098;6.414;2023-07-29T03:08:45;9.70;;;9.40;;
3050;SDS011;1535;51.098;6.414;2023-07-29T03:11:12;9.83;;;9.53;;
3050;SDS011;1535;51.098;6.414;2023-07-29T03:13:41;10.03;;;9.73;;
3050;SDS011;1535;51.098;6.414;2023-07-29T03:16:08;9.80;;;9.50;;
3050;SDS011;1535;51.098;6.414;2023-07-29T03:18:36;9.90;;;9.60;;
3050;SDS011;1535;51.098;6.414;2023-07-29T03:21:03;11.40;;;10.90;;
3050;SDS011;1535;51.098;6.414;2023-07-29T03:23:32;10.23;;;9.83;;
3050;SDS011;1535;51.098;6.414;2023-07-29T03:25:59;9.80;;;9.50;;
3050;SDS011;1535;51.098;6.414;2023-07-29T03:28:35;9.90;;;9.60;;
3050;SDS011;1535;51.098;6.414;2023-07-29T03:31:04;10.57;;;10.17;;
3050;SDS011;1535;51.098;6.414;2023-07-29T03:33:31;9.60;;;9.30;;
3050;SDS011;1535;51.098;6.414;2023-07-29T03:35:57;9.40;;;9.10;;
3050;SDS011;1535;51.098;6.414;2023-07-29T03:38:24;10.80;;;10.40;;
3050;SDS011;1535;51.098;6.414;2023-07-29T03:40:52;10.63;;;10.23;;
3050;SDS011;1535;51.098;6.414;2023-07-29T03:43:20;11.10;;;10.70;;
3050;SDS011;1535;51.098;6.414;2023-07-29T03:45:47;10.10;;;9.80;;
3050;SDS011;1535;51.098;6.414;2023-07-29T03:48:15;11.20;;;10.80;;
3050;SDS011;1535;51.098;6.414;2023-07-29T03:50:41;10.90;;;10.50;;
3050;SDS011;1535;51.098;6.414;2023-07-29T03:53:08;10.80;;;10.40;;
3050;SDS011;1535;51.098;6.414;2023-07-29T03:55:35;12.10;;;11.60;;
3050;SDS011;1535;51.098;6.414;2023-07-29T03:58:03;11.70;;;11.20;;
3050;SDS011;1535;51.098;6.414;2023-07-29T04:00:31;10.73;;;10.33;;
3050;SDS011;1535;51.098;6.414;2023-07-29T04:02:58;10.50;;;10.10;;
3050;SDS011;1535;51.098;6.414;2023-07-29T04:05:25;10.73;;;10.33;;
3050;SDS011;1535;51.098;6.414;2023-07-29T04:07:51;10.50;;;10.10;;
3050;SDS011;1535;51.098;6.414;2023-07-29T04:10:19;10.13;;;9.83;;
3050;SDS011;1535;51.098;6.414;2023-07-29T04:12:46;10.07;;;9.77;;
3050;SDS011;1535;51.098;6.414;2023-07-29T04:15:15;9.60;;;9.30;;
3050;SDS011;1535;51.098;6.414;2023-07-29T04:17:43;9.90;;;9.60;;
3050;SDS011;1535;51.098;6.414;2023-07-29T04:20:10;9.83;;;9.53;;
3050;SDS011;1535;51.098;6.414;2023-07-29T04:22:37;9.97;;;9.57;;
3050;SDS011;1535;51.098;6.414;2023-07-29T04:25:04;10.20;;;9.90;;
3050;SDS011;1535;51.098;6.414;2023-07-29T04:27:32;10.20;;;9.90;;
3050;SDS011;1535;51.098;6.414;2023-07-29T04:29:59;11.17;;;10.70;;
3050;SDS011;1535;51.098;6.414;2023-07-29T04:32:27;10.40;;;10.00;;
3050;SDS011;1535;51.098;6.414;2023-07-29T04:34:55;10.87;;;10.37;;
3050;SDS011;1535;51.098;6.414;2023-07-29T04:37:23;9.70;;;9.40;;
3050;SDS011;1535;51.098;6.414;2023-07-29T04:39:50;9.70;;;9.40;;
3050;SDS011;1535;51.098;6.414;2023-07-29T04:42:17;9.90;;;9.60;;
3050;SDS011;1535;51.098;6.414;2023-07-29T04:44:44;10.50;;;10.10;;
3050;SDS011;1535;51.098;6.414;2023-07-29T04:47:11;10.50;;;10.10;;
3050;SDS011;1535;51.098;6.414;2023-07-29T04:49:39;10.43;;;10.03;;
3050;SDS011;1535;51.098;6.414;2023-07-29T04:52:06;10.93;;;10.53;;
3050;SDS011;1535;51.098;6.414;2023-07-29T04:54:33;10.60;;;10.20;;
3050;SDS011;1535;51.098;6.414;2023-07-29T04:57:01;10.63;;;10.23;;
3050;SDS011;1535;51.098;6.414;2023-07-29T04:59:27;11.17;;;10.77;;
3050;SDS011;1535;51.098;6.414;2023-07-29T05:01:55;10.93;;;10.53;;
3050;SDS011;1535;51.098;6.414;2023-07-29T05:04:22;10.97;;;10.47;;
3050;SDS011;1535;51.098;6.414;2023-07-29T05:06:51;10.20;;;9.90;;
3050;SDS011;1535;51.098;6.414;2023-07-29T05:09:18;10.50;;;10.10;;
3050;SDS011;1535;51.098;6.414;2023-07-29T05:11:46;9.97;;;9.67;;
3050;SDS011;1535;51.098;6.414;2023-07-29T05:14:14;9.43;;;9.13;;
3050;SDS011;1535;51.098;6.414;2023-07-29T05:16:42;9.83;;;9.53;;
3050;SDS011;1535;51.098;6.414;2023-07-29T05:19:10;9.60;;;9.30;;
3050;SDS011;1535;51.098;6.414;2023-07-29T05:21:37;8.77;;;8.47;;
3050;SDS011;1535;51.098;6.414;2023-07-29T05:24:05;9.17;;;8.87;;
3050;SDS011;1535;51.098;6.414;2023-07-29T05:26:33;8.53;;;8.23;;
3050;SDS011;1535;51.098;6.414;2023-07-29T05:29:00;8.67;;;8.37;;
3050;SDS011;1535;51.098;6.414;2023-07-29T05:31:27;8.73;;;8.43;;
3050;SDS011;1535;51.098;6.414;2023-07-29T05:33:54;8.20;;;7.90;;
3050;SDS011;1535;51.098;6.414;2023-07-29T05:36:22;7.80;;;7.60;;
3050;SDS011;1535;51.098;6.414;2023-07-29T05:38:49;8.27;;;7.97;;
3050;SDS011;1535;51.098;6.414;2023-07-29T05:41:18;7.37;;;7.17;;
3050;SDS011;1535;51.098;6.414;2023-07-29T05:43:44;6.80;;;6.60;;
3050;SDS011;1535;51.098;6.414;2023-07-29T05:46:11;7.07;;;6.87;;
3050;SDS011;1535;51.098;6.414;2023-07-29T05:48:39;6.20;;;6.00;;
3050;SDS011;1535;51.098;6.414;2023-07-29T05:51:06;5.53;;;5.43;;
3050;SDS011;1535;51.098;6.414;2023-07-29T05:53:33;5.97;;;5.77;;
3050;SDS011;1535;51.098;6.414;2023-07-29T05:55:59;5.33;;;5.13;;
3050;SDS011;1535;51.098;6.414;2023-07-29T05:58:28;4.60;;;4.50;;
3050;SDS011;1535;51.098;6.414;2023-07-29T06:00:56;4.90;;;4.80;;
3050;SDS011;1535;51.098;6.414;2023-07-29T06:03:22;4.50;;;4.40;;
3050;SDS011;1535;51.098;6.414;2023-07-29T06:05:49;4.50;;;4.40;;
3050;SDS011;1535;51.098;6.414;2023-07-29T06:08:16;5.27;;;4.97;;
3050;SDS011;1535;51.098;6.414;2023-07-29T06:10:45;4.30;;;4.20;;
3050;SDS011;1535;51.098;6.414;2023-07-29T06:13:12;4.77;;;4.67;;
3050;SDS011;1535;51.098;6.414;2023-07-29T06:15:41;4.90;;;4.80;;
3050;SDS011;1535;51.098;6.414;2023-07-29T06:18:08;5.17;;;5.07;;
3050;SDS011;1535;51.098;6.414;2023-07-29T06:20:34;5.80;;;5.43;;
3050;SDS011;1535;51.098;6.414;2023-07-29T06:23:01;5.00;;;4.90;;
3050;SDS011;1535;51.098;6.414;2023-07-29T06:25:28;5.83;;;5.63;;
3050;SDS011;1535;51.098;6.414;2023-07-29T06:27:56;5.77;;;5.57;;
3050;SDS011;1535;51.098;6.414;2023-07-29T06:30:23;5.80;;;5.60;;
3050;SDS011;1535;51.098;6.414;2023-07-29T06:32:51;6.10;;;5.90;;
3050;SDS011;1535;51.098;6.414;2023-07-29T06:35:19;6.53;;;6.33;;
3050;SDS011;1535;51.098;6.414;2023-07-29T06:37:47;7.53;;;6.87;;
3050;SDS011;1535;51.098;6.414;2023-07-29T06:40:14;6.73;;;6.53;;
3050;SDS011;1535;51.098;6.414;2023-07-29T06:42:40;7.37;;;7.17;;
3050;SDS011;1535;51.098;6.414;2023-07-29T06:45:07;7.40;;;7.20;;
3050;SDS011;1535;51.098;6.414;2023-07-29T06:47:35;6.90;;;6.70;;
3050;SDS011;1535;51.098;6.414;2023-07-29T06:50:04;8.07;;;7.77;;
3050;SDS011;1535;51.098;6.414;2023-07-29T06:52:31;7.80;;;7.40;;
3050;SDS011;1535;51.098;6.414;2023-07-29T06:54:58;7.73;;;7.43;;
3050;SDS011;1535;51.098;6.414;2023-07-29T06:57:25;8.27;;;7.77;;
3050;SDS011;1535;51.098;6.414;2023-07-29T06:59:52;8.10;;;7.80;;
3050;SDS011;1535;51.098;6.414;2023-07-29T07:02:20;8.90;;;8.50;;
3050;SDS011;1535;51.098;6.414;2023-07-29T07:04:47;8.80;;;8.50;;
3050;SDS011;1535;51.098;6.414;2023-07-29T07:07:16;8.70;;;8.40;;
3050;SDS011;1535;51.098;6.414;2023-07-29T07:09:43;7.73;;;7.53;;
3050;SDS011;1535;51.098;6.414;2023-07-29T07:12:10;6.90;;;6.70;;
3050;SDS011;1535;51.098;6.414;2023-07-29T07:14:37;7.37;;;7.17;;
3050;SDS011;1535;51.098;6.414;2023-07-29T07:17:04;8.60;;;8.20;;
3050;SDS011;1535;51.098;6.414;2023-07-29T07:19:31;9.60;;;9.30;;
3050;SDS011;1535;51.098;6.414;2023-07-29T07:21:58;9.53;;;9.23;;
3050;SDS011;1535;51.098;6.414;2023-07-29T07:24:27;10.27;;;9.87;;
3050;SDS011;1535;51.098;6.414;2023-07-29T07:26:54;10.90;;;10.50;;
3050;SDS011;1535;51.098;6.414;2023-07-29T07:29:21;12.00;;;11.40;;
3050;SDS011;1535;51.098;6.414;2023-07-29T07:31:49;11.57;;;11.07;;
3050;SDS011;1535;51.098;6.414;2023-07-29T07:34:17;11.70;;;11.20;;
3050;SDS011;1535;51.098;6.414;2023-07-29T07:36:45;12.10;;;11.60;;
3050;SDS011;1535;51.098;6.414;2023-07-29T07:39:12;11.00;;;10.60;;
3050;SDS011;1535;51.098;6.414;2023-07-29T07:41:40;10.80;;;10.40;;
3050;SDS011;1535;51.098;6.414;2023-07-29T07:44:08;11.27;;;10.87;;
3050;SDS011;1535;51.098;6.414;2023-07-29T07:46:36;11.20;;;10.80;;
3050;SDS011;1535;51.098;6.414;2023-07-29T07:49:03;12.80;;;12.30;;
3050;SDS011;1535;51.098;6.414;2023-07-29T07:51:30;13.03;;;12.43;;
3050;SDS011;1535;51.098;6.414;2023-07-29T07:53:57;12.10;;;11.60;;
3050;SDS011;1535;51.098;6.414;2023-07-29T07:56:26;12.93;;;12.33;;
3050;SDS011;1535;51.098;6.414;2023-07-29T07:58:54;13.37;;;12.77;;
3050;SDS011;1535;51.098;6.414;2023-07-29T08:01:21;12.77;;;12.27;;
3050;SDS011;1535;51.098;6.414;2023-07-29T08:03:49;12.63;;;12.13;;
3050;SDS011;1535;51.098;6.414;2023-07-29T08:06:16;11.80;;;11.37;;
3050;SDS011;1535;51.098;6.414;2023-07-29T08:08:43;12.30;;;11.80;;
3050;SDS011;1535;51.098;6.414;2023-07-29T08:11:11;13.00;;;12.40;;
3050;SDS011;1535;51.098;6.414;2023-07-29T08:13:38;13.00;;;12.40;;
3050;SDS011;1535;51.098;6.414;2023-07-29T08:16:06;13.00;;;12.40;;
3050;SDS011;1535;51.098;6.414;2023-07-29T08:18:33;13.30;;;12.70;;
3050;SDS011;1535;51.098;6.414;2023-07-29T08:21:00;13.83;;;13.13;;
3050;SDS011;1535;51.098;6.414;2023-07-29T08:23:29;13.70;;;13.10;;
3050;SDS011;1535;51.098;6.414;2023-07-29T08:25:57;13.50;;;12.90;;
3050;SDS011;1535;51.098;6.414;2023-07-29T08:28:27;13.53;;;12.93;;
3050;SDS011;1535;51.098;6.414;2023-07-29T08:30:54;13.53;;;13.00;;
3050;SDS011;1535;51.098;6.414;2023-07-29T08:33:25;13.57;;;13.07;;
3050;SDS011;1535;51.098;6.414;2023-07-29T08:35:53;12.73;;;12.23;;
3050;SDS011;1535;51.098;6.414;2023-07-29T08:38:20;13.43;;;12.83;;
3050;SDS011;1535;51.098;6.414;2023-07-29T08:40:49;13.57;;;13.07;;
3050;SDS011;1535;51.098;6.414;2023-07-29T08:43:20;13.80;;;13.20;;
3050;SDS011;1535;51.098;6.414;2023-07-29T08:45:54;14.10;;;13.50;;
3050;SDS011;1535;51.098;6.414;2023-07-29T08:48:23;14.30;;;13.70;;
3050;SDS011;1535;51.098;6.414;2023-07-29T08:50:55;15.30;;;14.60;;
3050;SDS011;1535;51.098;6.414;2023-07-29T08:53:23;14.57;;;13.97;;
3050;SDS011;1535;51.098;6.414;2023-07-29T08:55:51;15.33;;;14.63;;
3050;SDS011;1535;51.098;6.414;2023-07-29T08:58:18;15.50;;;14.80;;
3050;SDS011;1535;51.098;6.414;2023-07-29T09:00:47;15.43;;;14.73;;
3050;SDS011;1535;51.098;6.414;2023-07-29T09:03:15;15.30;;;14.60;;
3050;SDS011;1535;51.098;6.414;2023-07-29T09:05:44;14.60;;;14.00;;
3050;SDS011;1535;51.098;6.414;2023-07-29T09:08:11;14.83;;;14.23;;
3050;SDS011;1535;51.098;6.414;2023-07-29T09:10:39;14.80;;;14.20;;
3050;SDS011;1535;51.098;6.414;2023-07-29T09:13:07;14.60;;;14.00;;
3050;SDS011;1535;51.098;6.414;2023-07-29T09:15:34;15.03;;;14.33;;
3050;SDS011;1535;51.098;6.414;2023-07-29T09:18:08;14.70;;;14.10;;
3050;SDS011;1535;51.098;6.414;2023-07-29T09:20:36;14.20;;;13.60;;
3050;SDS011;1535;51.098;6.414;2023-07-29T09:23:06;14.43;;;13.83;;
3050;SDS011;1535;51.098;6.414;2023-07-29T09:25:35;14.80;;;14.00;;
3050;SDS011;1535;51.098;6.414;2023-07-29T09:28:07;14.80;;;14.20;;
3050;SDS011;1535;51.098;6.414;2023-07-29T09:30:35;14.23;;;13.63;;
3050;SDS011;1535;51.098;6.414;2023-07-29T09:33:02;15.07;;;14.37;;
3050;SDS011;1535;51.098;6.414;2023-07-29T09:35:30;13.77;;;13.20;;
3050;SDS011;1535;51.098;6.414;2023-07-29T09:38:00;15.37;;;14.40;;
3050;SDS011;1535;51.098;6.414;2023-07-29T09:40:33;14.37;;;13.77;;
3050;SDS011;1535;51.098;6.414;2023-07-29T09:43:01;14.90;;;14.07;;
3050;SDS011;1535;51.098;6.414;2023-07-29T09:45:29;14.47;;;13.87;;
3050;SDS011;1535;51.098;6.414;2023-07-29T09:47:57;14.47;;;13.87;;
3050;SDS011;1535;51.098;6.414;2023-07-29T09:50:24;14.73;;;14.13;;
3050;SDS011;1535;51.098;6.414;2023-07-29T09:52:52;14.50;;;13.90;;
3050;SDS011;1535;51.098;6.414;2023-07-29T09:55:21;15.20;;;14.50;;
3050;SDS011;1535;51.098;6.414;2023-07-29T09:57:54;15.33;;;14.63;;
3050;SDS011;1535;51.098;6.414;2023-07-29T10:00:22;14.63;;;14.00;;
3050;SDS011;1535;51.098;6.414;2023-07-29T10:02:49;15.83;;;15.13;;
3050;SDS011;1535;51.098;6.414;2023-07-29T10:05:18;15.30;;;14.60;;
3050;SDS011;1535;51.098;6.414;2023-07-29T10:07:47;15.33;;;14.63;;
3050;SDS011;1535;51.098;6.414;2023-07-29T10:10:14;15.60;;;14.90;;
3050;SDS011;1535;51.098;6.414;2023-07-29T10:12:43;15.43;;;14.73;;
3050;SDS011;1535;51.098;6.414;2023-07-29T10:15:11;15.10;;;14.43;;
3050;SDS011;1535;51.098;6.414;2023-07-29T10:17:39;15.27;;;14.57;;
3050;SDS011;1535;51.098;6.414;2023-07-29T10:20:07;14.67;;;14.07;;
3050;SDS011;1535;51.098;6.414;2023-07-29T10:22:36;14.83;;;14.23;;
3050;SDS011;1535;51.098;6.414;2023-07-29T10:25:04;15.50;;;14.80;;
3050;SDS011;1535;51.098;6.414;2023-07-29T10:27:35;15.00;;;14.40;;
3050;SDS011;1535;51.098;6.414;2023-07-29T10:30:08;14.63;;;14.03;;
3050;SDS011;1535;51.098;6.414;2023-07-29T10:32:41;15.80;;;15.10;;
3050;SDS011;1535;51.098;6.414;2023-07-29T10:35:08;15.23;;;14.57;;
3050;SDS011;1535;51.098;6.414;2023-07-29T10:37:37;15.87;;;15.17;;
3050;SDS011;1535;51.098;6.414;2023-07-29T10:40:06;15.23;;;14.63;;
3050;SDS011;1535;51.098;6.414;2023-07-29T10:42:34;15.70;;;15.00;;
3050;SDS011;1535;51.098;6.414;2023-07-29T10:47:47;16.20;;;15.40;;
3050;SDS011;1535;51.098;6.414;2023-07-29T10:50:18;16.37;;;15.57;;
3050;SDS011;1535;51.098;6.414;2023-07-29T10:52:48;16.93;;;16.10;;
3050;SDS011;1535;51.098;6.414;2023-07-29T10:55:27;16.63;;;15.87;;
3050;SDS011;1535;51.098;6.414;2023-07-29T10:58:09;16.33;;;15.60;;
3050;SDS011;1535;51.098;6.414;2023-07-29T11:00:41;15.33;;;14.63;;
3050;SDS011;1535;51.098;6.414;2023-07-29T11:03:08;16.27;;;15.57;;
3050;SDS011;1535;51.098;6.414;2023-07-29T11:05:43;26.40;;;15.17;;
3050;SDS011;1535;51.098;6.414;2023-07-29T11:08:21;15.07;;;14.40;;
3050;SDS011;1535;51.098;6.414;2023-07-29T11:10:59;15.37;;;14.67;;
3050;SDS011;1535;51.098;6.414;2023-07-29T11:13:28;14.70;;;14.10;;
3050;SDS011;1535;51.098;6.414;2023-07-29T11:15:58;15.67;;;14.97;;
3050;SDS011;1535;51.098;6.414;2023-07-29T11:18:26;14.97;;;14.37;;
3050;SDS011;1535;51.098;6.414;2023-07-29T11:20:56;15.30;;;14.60;;
3050;SDS011;1535;51.098;6.414;2023-07-29T11:23:27;15.20;;;14.50;;
3050;SDS011;1535;51.098;6.414;2023-07-29T11:25:56;15.17;;;14.47;;
3050;SDS011;1535;51.098;6.414;2023-07-29T11:28:23;16.27;;;15.50;;
3050;SDS011;1535;51.098;6.414;2023-07-29T11:30:50;15.30;;;14.70;;
3050;SDS011;1535;51.098;6.414;2023-07-29T11:33:19;14.87;;;14.27;;
3050;SDS011;1535;51.098;6.414;2023-07-29T11:35:47;18.50;;;17.70;;
3050;SDS011;1535;51.098;6.414;2023-07-29T11:38:15;18.43;;;17.63;;
3050;SDS011;1535;51.098;6.414;2023-07-29T11:40:43;15.50;;;14.90;;
3050;SDS011;1535;51.098;6.414;2023-07-29T11:43:16;15.50;;;14.90;;
3050;SDS011;1535;51.098;6.414;2023-07-29T11:45:44;15.93;;;15.23;;
3050;SDS011;1535;51.098;6.414;2023-07-29T11:48:11;16.43;;;15.57;;
3050;SDS011;1535;51.098;6.414;2023-07-29T11:50:39;16.20;;;15.50;;
3050;SDS011;1535;51.098;6.414;2023-07-29T11:53:06;16.40;;;15.70;;
3050;SDS011;1535;51.098;6.414;2023-07-29T11:55:33;15.67;;;15.07;;
3050;SDS011;1535;51.098;6.414;2023-07-29T11:58:00;16.50;;;15.80;;
3050;SDS011;1535;51.098;6.414;2023-07-29T12:00:28;15.37;;;14.77;;
3050;SDS011;1535;51.098;6.414;2023-07-29T12:02:56;16.13;;;15.47;;
3050;SDS011;1535;51.098;6.414;2023-07-29T12:05:23;17.17;;;16.40;;
3050;SDS011;1535;51.098;6.414;2023-07-29T12:07:52;16.77;;;16.07;;
3050;SDS011;1535;51.098;6.414;2023-07-29T12:10:20;16.07;;;15.37;;
3050;SDS011;1535;51.098;6.414;2023-07-29T12:12:48;16.80;;;16.10;;
3050;SDS011;1535;51.098;6.414;2023-07-29T12:15:22;16.30;;;15.60;;
3050;SDS011;1535;51.098;6.414;2023-07-29T12:17:52;16.87;;;16.17;;
3050;SDS011;1535;51.098;6.414;2023-07-29T12:20:22;16.50;;;15.80;;
3050;SDS011;1535;51.098;6.414;2023-07-29T12:22:54;16.07;;;15.37;;
3050;SDS011;1535;51.098;6.414;2023-07-29T12:25:21;17.63;;;16.83;;
3050;SDS011;1535;51.098;6.414;2023-07-29T12:27:49;18.43;;;17.43;;
3050;SDS011;1535;51.098;6.414;2023-07-29T12:30:16;17.80;;;17.00;;
3050;SDS011;1535;51.098;6.414;2023-07-29T12:32:46;26.27;;;17.43;;
3050;SDS011;1535;51.098;6.414;2023-07-29T12:35:14;16.93;;;16.20;;
3050;SDS011;1535;51.098;6.414;2023-07-29T12:37:41;15.40;;;14.80;;
3050;SDS011;1535;51.098;6.414;2023-07-29T12:40:19;15.57;;;14.87;;
3050;SDS011;1535;51.098;6.414;2023-07-29T12:42:48;16.37;;;15.67;;
3050;SDS011;1535;51.098;6.414;2023-07-29T12:45:17;16.93;;;16.13;;
3050;SDS011;1535;51.098;6.414;2023-07-29T12:47:44;15.60;;;14.90;;
3050;SDS011;1535;51.098;6.414;2023-07-29T12:50:11;15.77;;;15.07;;
3050;SDS011;1535;51.098;6.414;2023-07-29T12:52:38;14.97;;;14.27;;
3050;SDS011;1535;51.098;6.414;2023-07-29T12:55:05;17.70;;;16.70;;
3050;SDS011;1535;51.098;6.414;2023-07-29T12:57:39;14.03;;;13.43;;
3050;SDS011;1535;51.098;6.414;2023-07-29T13:00:07;14.03;;;13.43;;
3050;SDS011;1535;51.098;6.414;2023-07-29T13:02:35;14.23;;;13.53;;
3050;SDS011;1535;51.098;6.414;2023-07-29T13:05:03;14.83;;;14.13;;
3050;SDS011;1535;51.098;6.414;2023-07-29T13:07:31;17.63;;;16.60;;
3050;SDS011;1535;51.098;6.414;2023-07-29T13:09:57;14.77;;;14.10;;
3050;SDS011;1535;51.098;6.414;2023-07-29T13:12:24;13.80;;;13.20;;
3050;SDS011;1535;51.098;6.414;2023-07-29T13:14:54;14.77;;;13.70;;
3050;SDS011;1535;51.098;6.414;2023-07-29T13:17:21;12.20;;;11.70;;
3050;SDS011;1535;51.098;6.414;2023-07-29T13:19:48;12.30;;;11.80;;
3050;SDS011;1535;51.098;6.414;2023-07-29T13:22:15;12.50;;;12.00;;
3050;SDS011;1535;51.098;6.414;2023-07-29T13:24:43;12.23;;;11.73;;
3050;SDS011;1535;51.098;6.414;2023-07-29T13:27:09;12.63;;;11.93;;
3050;SDS011;1535;51.098;6.414;2023-07-29T13:29:36;16.57;;;15.73;;
3050;SDS011;1535;51.098;6.414;2023-07-29T13:32:05;25.93;;;17.00;;
3050;SDS011;1535;51.098;6.414;2023-07-29T13:34:32;21.40;;;19.70;;
3050;SDS011;1535;51.098;6.414;2023-07-29T13:37:00;14.90;;;14.10;;
3050;SDS011;1535;51.098;6.414;2023-07-29T13:39:27;13.53;;;12.87;;
3050;SDS011;1535;51.098;6.414;2023-07-29T13:41:54;11.20;;;10.80;;
3050;SDS011;1535;51.098;6.414;2023-07-29T13:44:20;10.17;;;9.70;;
3050;SDS011;1535;51.098;6.414;2023-07-29T13:46:47;9.80;;;9.13;;
3050;SDS011;1535;51.098;6.414;2023-07-29T13:49:15;9.20;;;8.90;;
3050;SDS011;1535;51.098;6.414;2023-07-29T13:51:42;9.70;;;9.30;;
3050;SDS011;1535;51.098;6.414;2023-07-29T13:54:09;7.50;;;7.30;;
3050;SDS011;1535;51.098;6.414;2023-07-29T13:56:36;5.53;;;5.23;;
3050;SDS011;1535;51.098;6.414;2023-07-29T13:59:03;5.93;;;5.73;;
3050;SDS011;1535;51.098;6.414;2023-07-29T14:01:30;4.43;;;4.33;;
3050;SDS011;1535;51.098;6.414;2023-07-29T14:03:57;3.83;;;3.73;;
3050;SDS011;1535;51.098;6.414;2023-07-29T14:06:25;3.00;;;2.80;;
3050;SDS011;1535;51.098;6.414;2023-07-29T14:08:52;3.73;;;3.60;;
3050;SDS011;1535;51.098;6.414;2023-07-29T14:11:19;6.23;;;6.03;;
3050;SDS011;1535;51.098;6.414;2023-07-29T14:13:46;10.53;;;10.13;;
3050;SDS011;1535;51.098;6.414;2023-07-29T14:16:12;10.33;;;9.93;;
3050;SDS011;1535;51.098;6.414;2023-07-29T14:18:39;12.70;;;12.20;;
3050;SDS011;1535;51.098;6.414;2023-07-29T14:21:06;13.30;;;12.80;;
3050;SDS011;1535;51.098;6.414;2023-07-29T14:23:35;13.47;;;12.97;;
3050;SDS011;1535;51.098;6.414;2023-07-29T14:26:03;12.40;;;11.90;;
3050;SDS011;1535;51.098;6.414;2023-07-29T14:28:30;12.10;;;11.60;;
3050;SDS011;1535;51.098;6.414;2023-07-29T14:30:57;10.87;;;10.47;;
3050;SDS011;1535;51.098;6.414;2023-07-29T14:33:23;12.37;;;11.87;;
3050;SDS011;1535;51.098;6.414;2023-07-29T14:35:51;13.43;;;12.83;;
3050;SDS011;1535;51.098;6.414;2023-07-29T14:38:18;13.63;;;13.07;;
3050;SDS011;1535;51.098;6.414;2023-07-29T14:40:47;12.50;;;12.00;;
3050;SDS011;1535;51.098;6.414;2023-07-29T14:43:15;14.87;;;14.17;;
3050;SDS011;1535;51.098;6.414;2023-07-29T14:45:43;15.73;;;14.93;;
3050;SDS011;1535;51.098;6.414;2023-07-29T14:48:09;14.93;;;14.30;;
3050;SDS011;1535;51.098;6.414;2023-07-29T14:50:36;14.80;;;14.20;;
3050;SDS011;1535;51.098;6.414;2023-07-29T14:53:03;15.47;;;14.77;;
3050;SDS011;1535;51.098;6.414;2023-07-29T14:55:29;15.30;;;14.60;;
3050;SDS011;1535;51.098;6.414;2023-07-29T14:57:58;15.10;;;14.40;;
3050;SDS011;1535;51.098;6.414;2023-07-29T15:00:24;15.80;;;15.10;;
3050;SDS011;1535;51.098;6.414;2023-07-29T15:02:51;16.07;;;15.37;;